Bradenton, Florida
Current Conditions -  °F | °C
As of 8:26 AM on Sunday 23 Nov 2014 (Local Time) from KSRQ Reporting Station
Scattered Clouds Scattered Clouds  
Wind Chill: 75°   Ceiling: Unl
Heat Index: 75°   Visibility: 10mi
Dew Point: 71°   Wind: 17mph
Humidity: 87%   Direction: 140°SE
Pressure: 29.99"   Gusts: NA
Location:  27.5°N, 82.58°W
Report Text: KSRQ 231326Z 14015KT 10SM SCT011 24/22 A2999 RMK AO2 T02390217
Loading
Personal Weather Stations






























Interactive Weather Map New forecast layout! Learn more

10-Day Weather Forecast

Advertisements
Track Severe Weather on mobile